sensor_id;sensor_type;location;lat;lon;timestamp;pressure;altitude;pressure_sealevel;temperature;humidity
79316;BME280;68779;50.036;19.964;2023-07-31T00:25:56;101247.31;;;19.08;71.35
79316;BME280;68779;50.036;19.964;2023-07-31T00:56:12;101258.34;;;19.08;71.51
79316;BME280;68779;50.036;19.964;2023-07-31T01:26:34;101266.05;;;19.12;71.99
79316;BME280;68779;50.036;19.964;2023-07-31T01:56:47;101265.09;;;19.05;73.01
79316;BME280;68779;50.036;19.964;2023-07-31T02:27:01;101300.45;;;18.64;75.01
79316;BME280;68779;50.036;19.964;2023-07-31T02:57:17;101343.93;;;18.54;76.16
79316;BME280;68779;50.036;19.964;2023-07-31T03:27:37;101357.93;;;18.67;74.60
79316;BME280;68779;50.036;19.964;2023-07-31T03:57:53;101351.88;;;18.49;74.69
79316;BME280;68779;50.036;19.964;2023-07-31T04:28:07;101358.13;;;18.66;74.39
79316;BME280;68779;50.036;19.964;2023-07-31T04:58:23;101390.79;;;18.46;75.42
79316;BME280;68779;50.036;19.964;2023-07-31T05:28:38;101435.73;;;18.47;74.87
79316;BME280;68779;50.036;19.964;2023-07-31T05:58:56;101446.72;;;19.00;72.02
79316;BME280;68779;50.036;19.964;2023-07-31T06:29:11;101442.66;;;19.11;71.78
79316;BME280;68779;50.036;19.964;2023-07-31T06:59:27;101436.15;;;19.49;69.32
79316;BME280;68779;50.036;19.964;2023-07-31T07:29:43;101433.96;;;20.03;66.83
79316;BME280;68779;50.036;19.964;2023-07-31T08:00:03;101457.69;;;19.97;66.85
79316;BME280;68779;50.036;19.964;2023-07-31T08:30:18;101460.93;;;20.30;65.65
79316;BME280;68779;50.036;19.964;2023-07-31T09:00:33;101454.30;;;20.81;62.04
79316;BME280;68779;50.036;19.964;2023-07-31T09:30:50;101442.78;;;21.14;60.42
79316;BME280;68779;50.036;19.964;2023-07-31T10:18:24;101377.92;;;23.38;53.74
79316;BME280;68779;50.036;19.964;2023-07-31T10:48:40;101344.98;;;24.63;48.17
79316;BME280;68779;50.036;19.964;2023-07-31T11:18:56;101309.17;;;26.02;43.83
79316;BME280;68779;50.036;19.964;2023-07-31T11:49:14;101295.84;;;26.93;39.13
79316;BME280;68779;50.036;19.964;2023-07-31T12:19:32;101283.97;;;27.21;36.51
79316;BME280;68779;50.036;19.964;2023-07-31T12:49:46;101241.45;;;29.33;33.75
79316;BME280;68779;50.036;19.964;2023-07-31T13:20:03;101213.44;;;29.33;33.60
79316;BME280;68779;50.036;19.964;2023-07-31T13:50:19;101196.80;;;30.39;31.28
79316;BME280;68779;50.036;19.964;2023-07-31T14:20:38;101156.25;;;32.08;27.83
79316;BME280;68779;50.036;19.964;2023-07-31T14:50:53;101123.80;;;34.24;23.90
79316;BME280;68779;50.036;19.964;2023-07-31T15:21:08;101120.51;;;32.18;27.29
79316;BME280;68779;50.036;19.964;2023-07-31T15:51:28;101131.37;;;27.54;35.91
79316;BME280;68779;50.036;19.964;2023-07-31T16:21:43;101118.37;;;26.39;38.86
79316;BME280;68779;50.036;19.964;2023-07-31T16:51:57;101100.94;;;25.91;40.16
79316;BME280;68779;50.036;19.964;2023-07-31T17:52:38;101115.67;;;24.59;43.93
79316;BME280;68779;50.036;19.964;2023-07-31T18:22:51;101128.52;;;23.80;47.85
79316;BME280;68779;50.036;19.964;2023-07-31T18:53:06;101151.34;;;22.73;50.95
79316;BME280;68779;50.036;19.964;2023-07-31T19:23:23;101164.52;;;21.86;54.20
79316;BME280;68779;50.036;19.964;2023-07-31T20:24:02;101143.66;;;20.89;58.14
79316;BME280;68779;50.036;19.964;2023-07-31T20:54:15;101114.52;;;20.52;58.98
79316;BME280;68779;50.036;19.964;2023-07-31T21:24:39;101096.94;;;20.04;60.61
79316;BME280;68779;50.036;19.964;2023-07-31T21:54:55;101058.40;;;19.47;62.84
79316;BME280;68779;50.036;19.964;2023-07-31T23:26:10;101022.87;;;18.66;66.95
79316;BME280;68779;50.036;19.964;2023-07-31T23:56:25;101012.54;;;18.54;67.80
